Voidomatis — A8FX2 — position and weather

sailwx.info

Track history (hours):
 
Tides and Currents Weather Stations Pressure Air Temp Water Temp Dewpoint Dewpoint Depression Visibility Wind Speed Wind Dir Waves Ship Positions

Voidomatis

Last reported at 2014-Jul-25 04:33 UTC. Time now 2014-Aug-01 05:55 UTC.
Position N 59°10' W 006°55'.

Length 213 m; draft 10.7 m.

Type: Tanker. MMSI: 636012508.

Date/timePositionNaut miles runAvg speedWind from/ knotsBaromVisibWave heightAir tempDewpointWater temp
2014-Jul-25 04:33N 59°10' W 006°55'1212.3
2014-Jul-25 03:33N 59°13' W 006°32'1212.3
2014-Jul-25 02:32N 59°17' W 006°09'1812.6
2014-Jul-25 01:08N 59°19' W 005°34'712.9
2014-Jul-25 00:33N 59°21' W 005°20'1712.7
2014-Jul-24 23:13N 59°25' W 004°48'812.7
2014-Jul-24 22:33N 59°27' W 004°32'1612.5
2014-Jul-24 21:17N 59°30' W 004°01'22812.1
2014-Jul-24 02:27N 58°19' E 002°59'1212.3
2014-Jul-24 01:31N 58°16' E 003°20'1412.4
2014-Jul-24 00:22N 58°11' E 003°45'1012.4
2014-Jul-23 23:33N 58°07' E 004°03'1212.4
2014-Jul-23 22:33N 58°03' E 004°25'1312.4
2014-Jul-23 21:33N 57°59' E 004°47'1212.5
2014-Jul-23 20:33N 57°55' E 005°09'10912.1
2014-Jul-23 11:32N 57°39' E 008°32'1312.1
2014-Jul-23 10:27N 57°42' E 008°56'1112.1
2014-Jul-23 09:32N 57°44' E 009°16'1212.0
2014-Jul-23 08:33N 57°46' E 009°37'1312.4
2014-Jul-23 07:33N 57°48' E 010°01'1212.3
2014-Jul-23 06:33N 57°48' E 010°24'1211.7
2014-Jul-23 05:33N 57°48' E 010°46'7 7.2
2014-Jul-23 04:33N 57°41' E 010°43'0 0.1
2014-Jul-23 03:23N 57°41' E 010°43'0 0.2
2014-Jul-23 02:32N 57°41' E 010°42'0 0.1
2014-Jul-23 01:32N 57°41' E 010°43'0 0.0
2014-Jul-23 00:32N 57°41' E 010°43'1 0.6
2014-Jul-22 23:34N 57°42' E 010°43'10 9.8
2014-Jul-22 22:33N 57°51' E 010°49'1111.5
2014-Jul-22 21:33N 58°01' E 010°58'1211.9
2014-Jul-22 20:32N 58°12' E 011°08'5 0.1
2014-Jul-21 08:30N 58°16' E 011°14'5 5.3
2014-Jul-21 07:33N 58°11' E 011°10'0 0.1
2014-Jul-21 06:33N 58°11' E 011°10'0 0.0
2014-Jul-21 05:33N 58°11' E 011°10'0 0.0
2014-Jul-21 04:29N 58°11' E 011°10'0 0.0
2014-Jul-21 03:21N 58°11' E 011°10'0 0.0
2014-Jul-21 02:21N 58°11' E 011°10'0 0.0
2014-Jul-21 01:30N 58°11' E 011°10'0 0.1
2014-Jul-21 00:29N 58°11' E 011°10'8 8.5
2014-Jul-20 23:33N 58°08' E 010°57'7 7.4
2014-Jul-20 22:33N 58°06' E 010°43'1211.8
2014-Jul-20 21:33N 58°01' E 010°23'1311.8
2014-Jul-20 20:30N 57°55' E 010°02'1212.2
2014-Jul-20 19:33N 57°49' E 009°43'14010.7
2014-Jul-20 06:33N 56°15' E 006°34'18 8.4
2014-Jul-20 04:27N 55°59' E 006°20'8 7.9
2014-Jul-20 03:25N 55°52' E 006°14'8 8.4
2014-Jul-20 02:28N 55°44' E 006°08'89 9.6
2014-Jul-19 17:12N 54°24' E 005°02'811.9
2014-Jul-19 16:32N 54°16' E 004°56'1211.9
2014-Jul-19 15:31N 54°06' E 004°47'1111.8
2014-Jul-19 14:33N 53°56' E 004°37'1511.9
2014-Jul-19 13:19N 53°45' E 004°20'1411.7
2014-Jul-19 12:08N 53°37' E 004°01'711.7
2014-Jul-19 11:33N 53°33' E 003°52'1511.8
2014-Jul-19 10:18N 53°20' E 003°39'8612.6
2014-Jul-19 03:33N 52°03' E 002°40'1111.4
2014-Jul-19 02:34N 51°52' E 002°39'1010.4
2014-Jul-19 01:33N 51°42' E 002°30'1110.6
2014-Jul-19 00:33N 51°34' E 002°20'1110.8
2014-Jul-18 23:33N 51°26' E 002°09'1111.1
2014-Jul-18 22:33N 51°15' E 002°05'1211.9
2014-Jul-18 21:33N 51°09' E 001°49'1312.5
2014-Jul-18 20:33N 50°60' E 001°35'1813.2
2014-Jul-18 19:11N 50°43' E 001°22'812.5
2014-Jul-18 18:33N 50°37' E 001°14'1313.2
2014-Jul-18 17:34N 50°30' E 000°57'1414.4
2014-Jul-18 16:34N 50°26' E 000°35'1514.7
2014-Jul-18 15:32N 50°22' E 000°13'1715.5
2014-Jul-18 14:28N 50°16' W 000°12'1616.6
2014-Jul-18 13:32N 50°12' W 000°35'7117.6
2014-Jul-18 09:32N 49°55' W 002°22'1615.6
2014-Jul-18 08:32N 49°51' W 002°45'  
2014-Jul-15 15:09N 38°37' W 009°55'811.6
2014-Jul-15 14:25N 38°29' W 009°53'1011.2
2014-Jul-15 13:34N 38°19' W 009°50'1211.2
2014-Jul-15 12:29N 38°07' W 009°47'1311.1
2014-Jul-15 11:21N 37°55' W 009°43'910.9
2014-Jul-15 10:33N 37°47' W 009°40'1110.7
2014-Jul-15 09:32N 37°36' W 009°37'1110.8
2014-Jul-15 08:33N 37°26' W 009°34'1111.2
2014-Jul-15 07:33N 37°15' W 009°31'1211.6
2014-Jul-15 06:33N 37°04' W 009°28'1211.5
2014-Jul-15 05:30N 36°52' W 009°25'  
Track history (hours):
 
Tides and Currents Weather Stations Pressure Air Temp Water Temp Dewpoint Dewpoint Depression Visibility Wind Speed Wind Dir Waves Ship Positions

Voidomatis

Last reported at 2014-Jul-25 04:33 UTC. Time now 2014-Aug-01 05:55 UTC.
Position N 59°10' W 006°55'.

Length 213 m; draft 10.7 m.

Type: Tanker. MMSI: 636012508.

Date/timePositionNaut miles runAvg speedWind from/ knotsBaromVisibWave heightAir tempDewpointWater temp
2014-Jul-25 04:33N 59°10' W 006°55'1212.3
2014-Jul-25 03:33N 59°13' W 006°32'1212.3
2014-Jul-25 02:32N 59°17' W 006°09'1812.6
2014-Jul-25 01:08N 59°19' W 005°34'712.9
2014-Jul-25 00:33N 59°21' W 005°20'1712.7
2014-Jul-24 23:13N 59°25' W 004°48'812.7
2014-Jul-24 22:33N 59°27' W 004°32'1612.5
2014-Jul-24 21:17N 59°30' W 004°01'22812.1
2014-Jul-24 02:27N 58°19' E 002°59'1212.3
2014-Jul-24 01:31N 58°16' E 003°20'1412.4
2014-Jul-24 00:22N 58°11' E 003°45'1012.4
2014-Jul-23 23:33N 58°07' E 004°03'1212.4
2014-Jul-23 22:33N 58°03' E 004°25'1312.4
2014-Jul-23 21:33N 57°59' E 004°47'1212.5
2014-Jul-23 20:33N 57°55' E 005°09'10912.1
2014-Jul-23 11:32N 57°39' E 008°32'1312.1
2014-Jul-23 10:27N 57°42' E 008°56'1112.1
2014-Jul-23 09:32N 57°44' E 009°16'1212.0
2014-Jul-23 08:33N 57°46' E 009°37'1312.4
2014-Jul-23 07:33N 57°48' E 010°01'1212.3
2014-Jul-23 06:33N 57°48' E 010°24'1211.7
2014-Jul-23 05:33N 57°48' E 010°46'7 7.2
2014-Jul-23 04:33N 57°41' E 010°43'0 0.1
2014-Jul-23 03:23N 57°41' E 010°43'0 0.2
2014-Jul-23 02:32N 57°41' E 010°42'0 0.1
2014-Jul-23 01:32N 57°41' E 010°43'0 0.0
2014-Jul-23 00:32N 57°41' E 010°43'1 0.6
2014-Jul-22 23:34N 57°42' E 010°43'10 9.8
2014-Jul-22 22:33N 57°51' E 010°49'1111.5
2014-Jul-22 21:33N 58°01' E 010°58'1211.9
2014-Jul-22 20:32N 58°12' E 011°08'5 0.1
2014-Jul-21 08:30N 58°16' E 011°14'5 5.3
2014-Jul-21 07:33N 58°11' E 011°10'0 0.1
2014-Jul-21 06:33N 58°11' E 011°10'0 0.0
2014-Jul-21 05:33N 58°11' E 011°10'0 0.0
2014-Jul-21 04:29N 58°11' E 011°10'0 0.0
2014-Jul-21 03:21N 58°11' E 011°10'0 0.0
2014-Jul-21 02:21N 58°11' E 011°10'0 0.0
2014-Jul-21 01:30N 58°11' E 011°10'0 0.1
2014-Jul-21 00:29N 58°11' E 011°10'8 8.5
2014-Jul-20 23:33N 58°08' E 010°57'7 7.4
2014-Jul-20 22:33N 58°06' E 010°43'1211.8
2014-Jul-20 21:33N 58°01' E 010°23'1311.8
2014-Jul-20 20:30N 57°55' E 010°02'1212.2
2014-Jul-20 19:33N 57°49' E 009°43'14010.7
2014-Jul-20 06:33N 56°15' E 006°34'18 8.4
2014-Jul-20 04:27N 55°59' E 006°20'8 7.9
2014-Jul-20 03:25N 55°52' E 006°14'8 8.4
2014-Jul-20 02:28N 55°44' E 006°08'89 9.6
2014-Jul-19 17:12N 54°24' E 005°02'811.9
2014-Jul-19 16:32N 54°16' E 004°56'1211.9
2014-Jul-19 15:31N 54°06' E 004°47'1111.8
2014-Jul-19 14:33N 53°56' E 004°37'1511.9
2014-Jul-19 13:19N 53°45' E 004°20'1411.7
2014-Jul-19 12:08N 53°37' E 004°01'711.7
2014-Jul-19 11:33N 53°33' E 003°52'1511.8
2014-Jul-19 10:18N 53°20' E 003°39'8612.6
2014-Jul-19 03:33N 52°03' E 002°40'1111.4
2014-Jul-19 02:34N 51°52' E 002°39'1010.4
2014-Jul-19 01:33N 51°42' E 002°30'1110.6
2014-Jul-19 00:33N 51°34' E 002°20'1110.8
2014-Jul-18 23:33N 51°26' E 002°09'1111.1
2014-Jul-18 22:33N 51°15' E 002°05'1211.9
2014-Jul-18 21:33N 51°09' E 001°49'1312.5
2014-Jul-18 20:33N 50°60' E 001°35'1813.2
2014-Jul-18 19:11N 50°43' E 001°22'812.5
2014-Jul-18 18:33N 50°37' E 001°14'1313.2
2014-Jul-18 17:34N 50°30' E 000°57'1414.4
2014-Jul-18 16:34N 50°26' E 000°35'1514.7
2014-Jul-18 15:32N 50°22' E 000°13'1715.5
2014-Jul-18 14:28N 50°16' W 000°12'1616.6
2014-Jul-18 13:32N 50°12' W 000°35'7117.6
2014-Jul-18 09:32N 49°55' W 002°22'1615.6
2014-Jul-18 08:32N 49°51' W 002°45'  
2014-Jul-15 15:09N 38°37' W 009°55'811.6
2014-Jul-15 14:25N 38°29' W 009°53'1011.2
2014-Jul-15 13:34N 38°19' W 009°50'1211.2
2014-Jul-15 12:29N 38°07' W 009°47'1311.1
2014-Jul-15 11:21N 37°55' W 009°43'910.9
2014-Jul-15 10:33N 37°47' W 009°40'1110.7
2014-Jul-15 09:32N 37°36' W 009°37'1110.8
2014-Jul-15 08:33N 37°26' W 009°34'1111.2
2014-Jul-15 07:33N 37°15' W 009°31'1211.6
2014-Jul-15 06:33N 37°04' W 009°28'1211.5
2014-Jul-15 05:30N 36°52' W 009°25'  

Dump ship's entire track history